Time;durP1;ratioP1;P1;durP2;ratioP2;P2;SDS_P1;SDS_P2;PMS_P1;PMS_P2;Temp;Humidity;BMP_temperature;BMP_pressure;BME280_temperature;BME280_humidity;BME280_pressure;Samples;Min_cycle;Max_cycle;Signal;HPM_P1;HPM_P2
2023/04/20 00:02:15;;;;;;;8.13;4.87;;;5.30;99.90;;;;;;5113598;28;20197;-77
2023/04/20 00:04:42;;;;;;;11.13;6.33;;;5.20;99.90;;;;;;5115340;28;20201;-77
2023/04/20 00:07:09;;;;;;;12.40;4.97;;;5.20;99.90;;;;;;5115441;28;20222;-77
2023/04/20 00:09:35;;;;;;;8.73;4.27;;;5.20;99.90;;;;;;5114948;28;20216;-77
2023/04/20 00:12:02;;;;;;;10.07;5.70;;;5.10;99.90;;;;;;5115373;28;20217;-78
2023/04/20 00:14:29;;;;;;;9.50;5.27;;;5.20;99.90;;;;;;5115633;28;20208;-78
2023/04/20 00:16:57;;;;;;;10.97;5.90;;;5.20;99.90;;;;;;5116362;28;20232;-77
2023/04/20 00:19:25;;;;;;;11.47;5.73;;;5.20;99.90;;;;;;5115631;28;20231;-77
2023/04/20 00:21:52;;;;;;;9.27;4.43;;;5.10;99.90;;;;;;5113710;28;20784;-77
2023/04/20 00:24:19;;;;;;;11.33;4.93;;;5.20;99.90;;;;;;5115092;28;20269;-76
2023/04/20 00:26:46;;;;;;;12.63;5.40;;;5.20;99.90;;;;;;5115521;28;20197;-77
2023/04/20 00:29:12;;;;;;;9.50;5.30;;;5.20;99.90;;;;;;5115027;28;20580;-77
2023/04/20 00:31:39;;;;;;;12.93;5.57;;;5.10;99.90;;;;;;5115375;28;20217;-77
2023/04/20 00:34:07;;;;;;;11.90;6.93;;;5.20;99.90;;;;;;5116204;28;20215;-77
2023/04/20 00:36:34;;;;;;;10.33;6.13;;;5.10;99.90;;;;;;5115047;28;20671;-77
2023/04/20 00:39:01;;;;;;;11.77;5.73;;;5.20;99.90;;;;;;5112609;28;20213;-77
2023/04/20 00:41:28;;;;;;;10.87;4.97;;;5.10;99.90;;;;;;5094403;28;20198;-76
2023/04/20 00:43:54;;;;;;;9.60;5.10;;;5.10;99.90;;;;;;5107417;28;20216;-75
2023/04/20 00:46:22;;;;;;;8.77;4.87;;;5.20;99.90;;;;;;5096845;28;20194;-76
2023/04/20 00:48:50;;;;;;;8.93;5.30;;;5.10;99.90;;;;;;5101585;28;20224;-78
2023/04/20 00:51:21;;;;;;;10.70;5.27;;;5.10;99.90;;;;;;5103991;28;20213;-77
2023/04/20 00:53:47;;;;;;;9.50;5.40;;;5.10;99.90;;;;;;5094922;28;20549;-78
2023/04/20 00:56:18;;;;;;;8.90;5.23;;;5.10;99.90;;;;;;5101260;28;20210;-78
2023/04/20 00:58:45;;;;;;;10.07;5.37;;;5.10;99.90;;;;;;5098731;28;20259;-78
2023/04/20 01:01:16;;;;;;;9.27;5.83;;;5.10;99.90;;;;;;5098110;28;20561;-79
2023/04/20 01:03:43;;;;;;;11.50;6.27;;;5.10;99.90;;;;;;5097896;28;20596;-78
2023/04/20 01:06:11;;;;;;;8.53;4.77;;;5.00;99.90;;;;;;5098056;28;20206;-78
2023/04/20 01:08:47;;;;;;;5.97;4.17;;;5.00;99.90;;;;;;5098515;28;20222;-78
2023/04/20 01:11:15;;;;;;;8.93;4.50;;;5.10;99.90;;;;;;5099621;28;20196;-79
2023/04/20 01:13:42;;;;;;;12.20;5.93;;;5.00;99.90;;;;;;5099274;28;20202;-78
2023/04/20 01:16:09;;;;;;;9.63;5.53;;;5.30;99.90;;;;;;5101936;28;20436;-79
2023/04/20 01:18:43;;;;;;;5.87;3.60;;;5.20;99.90;;;;;;5113740;28;20225;-79
2023/04/20 01:21:10;;;;;;;13.50;6.53;;;5.10;99.90;;;;;;5115714;28;20205;-78
2023/04/20 01:23:39;;;;;;;10.63;5.80;;;5.20;99.90;;;;;;5101491;28;20208;-79
2023/04/20 01:26:09;;;;;;;10.70;6.23;;;5.10;99.90;;;;;;5098174;28;20206;-78
2023/04/20 01:28:36;;;;;;;12.73;6.87;;;5.10;99.90;;;;;;5117630;28;20225;-78
2023/04/20 01:31:03;;;;;;;9.90;5.90;;;5.10;99.90;;;;;;5117218;28;20208;-78
2023/04/20 01:33:30;;;;;;;11.10;5.33;;;5.10;99.90;;;;;;5104127;28;20225;-78
2023/04/20 01:35:57;;;;;;;10.77;5.33;;;5.10;99.90;;;;;;5097128;28;20208;-78
2023/04/20 01:38:25;;;;;;;12.10;5.50;;;5.10;99.90;;;;;;5096406;28;20232;-78
2023/04/20 01:40:54;;;;;;;9.37;4.87;;;5.10;99.90;;;;;;5096409;28;20198;-78
2023/04/20 01:43:22;;;;;;;8.23;4.77;;;5.10;99.90;;;;;;5097720;28;20208;-78
2023/04/20 01:45:49;;;;;;;10.10;5.90;;;5.10;99.90;;;;;;5112603;28;20224;-78
2023/04/20 01:48:15;;;;;;;10.07;5.37;;;5.10;99.90;;;;;;5117228;28;20221;-78
2023/04/20 01:50:42;;;;;;;13.23;5.73;;;5.10;99.90;;;;;;5108720;28;20282;-78
2023/04/20 01:53:09;;;;;;;11.27;5.87;;;5.10;99.90;;;;;;5095961;28;20222;-78
2023/04/20 01:55:36;;;;;;;13.07;5.43;;;5.10;99.90;;;;;;5102802;28;20556;-78
2023/04/20 01:58:04;;;;;;;9.90;5.87;;;5.10;99.90;;;;;;5095616;28;20229;-78
2023/04/20 02:00:31;;;;;;;12.67;6.33;;;5.10;99.90;;;;;;5101765;28;20224;-78
2023/04/20 02:02:58;;;;;;;7.63;5.07;;;5.10;99.90;;;;;;5116783;28;20276;-78
2023/04/20 02:05:25;;;;;;;12.53;6.37;;;5.10;99.90;;;;;;5116029;28;20697;-79
2023/04/20 02:07:52;;;;;;;12.73;5.97;;;5.10;99.90;;;;;;5116420;28;20207;-79
2023/04/20 02:10:19;;;;;;;11.27;5.90;;;5.00;99.90;;;;;;5117172;28;20269;-78
2023/04/20 02:12:46;;;;;;;14.27;6.30;;;5.10;99.90;;;;;;5116436;28;20216;-77
2023/04/20 02:15:14;;;;;;;12.93;7.03;;;5.10;99.90;;;;;;5116547;28;20197;-78
2023/04/20 02:17:42;;;;;;;13.57;7.37;;;5.10;99.90;;;;;;5117074;28;20207;-78
2023/04/20 02:20:11;;;;;;;14.90;6.20;;;5.10;99.90;;;;;;5117365;28;20197;-78
2023/04/20 02:22:38;;;;;;;15.00;5.93;;;5.10;99.90;;;;;;5119215;28;20677;-78
2023/04/20 02:25:06;;;;;;;11.37;5.73;;;5.10;99.90;;;;;;5118212;28;20571;-78
2023/04/20 02:27:33;;;;;;;12.77;5.70;;;5.10;99.90;;;;;;5119183;28;20197;-78
2023/04/20 02:30:00;;;;;;;12.77;6.23;;;5.20;99.90;;;;;;5118059;28;20309;-78
2023/04/20 02:32:28;;;;;;;13.03;6.03;;;5.10;99.90;;;;;;5118497;28;20223;-78
2023/04/20 02:34:55;;;;;;;11.90;5.93;;;5.10;99.90;;;;;;5118669;28;20268;-78
2023/04/20 02:37:22;;;;;;;12.17;6.43;;;5.10;99.90;;;;;;5118017;28;20207;-79
2023/04/20 02:39:49;;;;;;;11.93;5.43;;;5.10;99.90;;;;;;5117600;28;20697;-78
2023/04/20 02:42:15;;;;;;;14.23;6.43;;;5.10;99.90;;;;;;5117288;28;20212;-79
2023/04/20 02:44:42;;;;;;;14.90;7.30;;;5.10;99.90;;;;;;5117301;28;20205;-79
2023/04/20 02:47:09;;;;;;;11.23;6.83;;;5.10;99.90;;;;;;5117634;28;20678;-78
2023/04/20 02:49:37;;;;;;;9.60;5.57;;;5.10;99.90;;;;;;5117387;28;20278;-79
2023/04/20 02:52:06;;;;;;;12.40;6.03;;;5.10;99.90;;;;;;5117239;28;20252;-80
2023/04/20 02:54:33;;;;;;;14.10;7.00;;;5.10;99.90;;;;;;5118212;28;20212;-78
2023/04/20 02:57:00;;;;;;;11.67;6.53;;;5.10;99.90;;;;;;5117792;28;20201;-78
2023/04/20 02:59:27;;;;;;;13.27;5.67;;;5.10;99.90;;;;;;5117285;28;20642;-78
2023/04/20 03:01:53;;;;;;;13.87;6.73;;;5.20;99.90;;;;;;5118140;28;20681;-78
2023/04/20 03:04:20;;;;;;;12.13;6.30;;;5.10;99.90;;;;;;5117705;28;20665;-78
2023/04/20 03:06:50;;;;;;;13.97;6.80;;;5.10;99.90;;;;;;5115537;28;20246;-79
2023/04/20 03:09:17;;;;;;;12.60;6.83;;;5.10;99.90;;;;;;5096637;28;20222;-79
2023/04/20 03:11:44;;;;;;;12.43;6.10;;;5.10;99.90;;;;;;5099789;28;20222;-79
2023/04/20 03:14:11;;;;;;;12.63;6.60;;;5.10;99.90;;;;;;5114302;28;20563;-79
2023/04/20 03:16:38;;;;;;;13.13;7.20;;;5.10;99.90;;;;;;5112756;28;20655;-80
2023/04/20 03:19:05;;;;;;;11.30;6.00;;;5.10;99.90;;;;;;5097021;28;20221;-78
2023/04/20 03:21:31;;;;;;;16.90;6.77;;;5.10;99.90;;;;;;5108203;28;20291;-81
2023/04/20 03:24:00;;;;;;;14.23;8.43;;;5.10;99.90;;;;;;5115536;28;20246;-78
2023/04/20 03:26:26;;;;;;;14.13;7.43;;;5.10;99.90;;;;;;5116697;28;20201;-78
2023/04/20 03:28:53;;;;;;;15.17;7.30;;;5.10;99.90;;;;;;5116326;28;20224;-78
2023/04/20 03:31:20;;;;;;;13.80;7.30;;;5.10;99.90;;;;;;5117227;28;20207;-78
2023/04/20 03:33:47;;;;;;;14.20;6.93;;;5.00;99.90;;;;;;5116993;28;20227;-78
2023/04/20 03:36:14;;;;;;;12.90;7.03;;;5.10;99.90;;;;;;5117138;28;20709;-78
2023/04/20 03:38:40;;;;;;;17.67;7.60;;;5.10;99.90;;;;;;5117236;28;20712;-78
2023/04/20 03:41:09;;;;;;;13.53;6.57;;;5.10;99.90;;;;;;5116648;28;20681;-78
2023/04/20 03:43:35;;;;;;;16.07;7.37;;;5.10;99.90;;;;;;5116690;28;20296;-79
2023/04/20 03:46:02;;;;;;;14.83;6.53;;;5.10;99.90;;;;;;5116785;28;20201;-78
2023/04/20 03:48:29;;;;;;;13.40;7.37;;;5.00;99.90;;;;;;5116557;28;20228;-79
2023/04/20 03:50:56;;;;;;;17.00;9.07;;;5.10;99.90;;;;;;5107743;28;20197;-78
2023/04/20 03:53:23;;;;;;;14.60;7.23;;;5.10;99.90;;;;;;5116201;28;20213;-78
2023/04/20 03:55:50;;;;;;;16.30;7.40;;;5.10;99.90;;;;;;5115890;28;20201;-78
2023/04/20 03:58:18;;;;;;;16.10;8.07;;;5.10;99.90;;;;;;5104756;28;20663;-79
2023/04/20 04:00:45;;;;;;;16.10;8.67;;;5.10;99.90;;;;;;5096079;28;20204;-79
2023/04/20 04:03:11;;;;;;;18.00;8.43;;;5.10;99.90;;;;;;5095826;28;20198;-78
2023/04/20 04:05:38;;;;;;;14.17;8.33;;;5.10;99.90;;;;;;5116097;28;20202;-79
2023/04/20 04:08:05;;;;;;;13.33;6.97;;;5.10;99.90;;;;;;5115682;28;20227;-80
2023/04/20 04:10:32;;;;;;;16.80;8.90;;;5.10;99.90;;;;;;5116144;28;20284;-79
2023/04/20 04:12:59;;;;;;;12.90;7.00;;;5.10;99.90;;;;;;5117105;28;20580;-79
2023/04/20 04:15:27;;;;;;;17.33;7.63;;;5.10;99.90;;;;;;5116958;28;20201;-79
2023/04/20 04:17:54;;;;;;;16.37;7.70;;;5.10;99.90;;;;;;5117793;28;20288;-79
2023/04/20 04:20:21;;;;;;;15.77;7.63;;;5.20;99.90;;;;;;5117543;28;20201;-79
2023/04/20 04:22:48;;;;;;;20.67;9.80;;;5.20;99.90;;;;;;5116870;28;20560;-79
2023/04/20 04:25:15;;;;;;;15.50;7.83;;;5.20;99.90;;;;;;5117003;28;20197;-79
2023/04/20 04:27:42;;;;;;;17.33;7.60;;;5.20;99.90;;;;;;5115975;28;20229;-78
2023/04/20 04:30:10;;;;;;;15.33;7.47;;;5.10;99.90;;;;;;5116565;28;20201;-78
2023/04/20 04:32:38;;;;;;;16.13;8.97;;;5.10;99.90;;;;;;5118887;28;20248;-79
2023/04/20 04:35:05;;;;;;;17.10;8.10;;;5.20;99.90;;;;;;5119386;28;20663;-79
2023/04/20 04:37:32;;;;;;;17.20;8.90;;;5.10;99.90;;;;;;5118042;28;20204;-79
2023/04/20 04:40:01;;;;;;;18.20;8.43;;;5.10;99.90;;;;;;5117312;28;20223;-79
2023/04/20 04:42:28;;;;;;;14.90;8.33;;;5.10;99.90;;;;;;5117675;28;20670;-79
2023/04/20 04:44:55;;;;;;;18.97;8.13;;;5.00;99.90;;;;;;5117822;28;20207;-79
2023/04/20 04:47:22;;;;;;;16.43;9.47;;;5.00;99.90;;;;;;5120003;28;20201;-79
2023/04/20 04:49:50;;;;;;;18.13;8.73;;;5.10;99.90;;;;;;5119775;28;20250;-79
2023/04/20 04:52:17;;;;;;;18.83;8.70;;;5.10;99.90;;;;;;5120600;28;20208;-79
2023/04/20 04:54:44;;;;;;;22.13;9.17;;;5.10;99.90;;;;;;5121107;28;20264;-78
2023/04/20 04:57:10;;;;;;;19.43;9.53;;;5.10;99.90;;;;;;5119502;28;20193;-78
2023/04/20 04:59:37;;;;;;;19.80;9.10;;;5.00;99.90;;;;;;5118938;28;20235;-79
2023/04/20 05:02:04;;;;;;;16.30;8.40;;;5.10;99.90;;;;;;5119616;28;20287;-79
2023/04/20 05:04:31;;;;;;;17.30;8.93;;;5.00;99.90;;;;;;5120365;28;20696;-78
2023/04/20 05:06:59;;;;;;;15.93;8.37;;;5.10;99.90;;;;;;5119586;28;20257;-78
2023/04/20 05:09:32;;;;;;;16.33;7.73;;;5.10;99.90;;;;;;5119246;28;20288;-78
2023/04/20 05:11:58;;;;;;;19.00;8.90;;;5.10;99.90;;;;;;5119805;27;20570;-78
2023/04/20 05:14:25;;;;;;;16.37;8.83;;;5.20;99.90;;;;;;5119357;28;20259;-78
2023/04/20 05:16:52;;;;;;;17.13;8.67;;;5.20;99.90;;;;;;5119119;28;20201;-78
2023/04/20 05:19:19;;;;;;;16.73;10.00;;;5.20;99.90;;;;;;5119253;28;20305;-78
2023/04/20 05:21:46;;;;;;;15.17;7.90;;;5.20;99.90;;;;;;5118637;28;20663;-79
2023/04/20 05:24:14;;;;;;;17.90;10.23;;;5.20;99.90;;;;;;5118490;28;20284;-79
2023/04/20 05:26:41;;;;;;;16.07;7.73;;;5.20;99.90;;;;;;5117783;28;20264;-79
2023/04/20 05:29:08;;;;;;;18.13;9.57;;;5.20;99.90;;;;;;5118181;28;20701;-78
2023/04/20 05:31:34;;;;;;;16.63;8.73;;;5.30;99.90;;;;;;5118727;28;20260;-78
2023/04/20 05:34:01;;;;;;;17.90;8.97;;;5.30;99.90;;;;;;5118824;28;20227;-79
2023/04/20 05:36:29;;;;;;;18.77;9.10;;;5.30;99.90;;;;;;5118825;28;20200;-78
2023/04/20 05:38:56;;;;;;;19.20;9.50;;;5.30;99.90;;;;;;5117679;28;20686;-78
2023/04/20 05:41:26;;;;;;;19.33;10.00;;;5.30;99.90;;;;;;5117790;28;20197;-78
2023/04/20 05:43:53;;;;;;;18.90;8.87;;;5.30;99.90;;;;;;5119333;28;20229;-78
2023/04/20 05:46:20;;;;;;;17.43;9.60;;;5.30;99.90;;;;;;5119065;28;20681;-79
2023/04/20 05:48:47;;;;;;;19.73;9.33;;;5.40;99.90;;;;;;5118080;28;20225;-78
2023/04/20 05:51:14;;;;;;;20.37;9.17;;;5.40;99.90;;;;;;5118396;28;20658;-78
2023/04/20 05:53:41;;;;;;;18.07;8.77;;;5.40;99.90;;;;;;5118766;28;20219;-78
2023/04/20 05:56:08;;;;;;;16.03;8.27;;;5.50;99.90;;;;;;5118626;28;20205;-79
2023/04/20 05:58:37;;;;;;;17.87;8.80;;;5.50;99.90;;;;;;5116777;28;20289;-78
2023/04/20 06:01:04;;;;;;;18.13;8.37;;;5.60;99.90;;;;;;5118115;28;20197;-78
2023/04/20 06:03:31;;;;;;;16.83;8.23;;;5.60;99.90;;;;;;5120039;28;20203;-79
2023/04/20 06:05:58;;;;;;;16.63;8.13;;;5.60;99.90;;;;;;5120678;28;20201;-79
2023/04/20 06:08:24;;;;;;;16.63;7.93;;;5.60;99.90;;;;;;5120219;28;20317;-78
2023/04/20 06:10:54;;;;;;;14.77;6.13;;;5.60;99.90;;;;;;5120083;28;20295;-79
2023/04/20 06:13:21;;;;;;;17.63;9.07;;;5.70;99.90;;;;;;5120219;28;20225;-79
2023/04/20 06:15:51;;;;;;;15.20;7.83;;;5.70;99.90;;;;;;5120775;28;20203;-79
2023/04/20 06:18:18;;;;;;;16.57;7.67;;;5.80;99.90;;;;;;5119724;28;20232;-79
2023/04/20 06:20:45;;;;;;;14.77;7.03;;;5.80;99.90;;;;;;5119264;28;20207;-79
2023/04/20 06:23:12;;;;;;;13.87;7.43;;;5.90;99.90;;;;;;5120500;28;20283;-79
2023/04/20 06:25:39;;;;;;;15.00;6.50;;;6.00;99.90;;;;;;5119853;28;20294;-79
2023/04/20 06:28:06;;;;;;;18.33;7.27;;;6.10;99.90;;;;;;5120379;28;20281;-79
2023/04/20 06:30:33;;;;;;;10.97;6.10;;;6.10;99.90;;;;;;5120967;28;20207;-79
2023/04/20 06:33:02;;;;;;;15.27;6.53;;;6.30;99.90;;;;;;5120040;28;20227;-79
2023/04/20 06:35:28;;;;;;;14.97;6.83;;;6.60;99.90;;;;;;5118331;28;20295;-79
2023/04/20 06:37:56;;;;;;;12.80;5.97;;;6.70;99.90;;;;;;5118760;28;20203;-79
2023/04/20 06:40:23;;;;;;;13.13;5.53;;;6.80;99.90;;;;;;5117989;28;20208;-78
2023/04/20 06:42:50;;;;;;;10.47;5.87;;;6.80;99.90;;;;;;5117916;28;20630;-79
2023/04/20 06:45:18;;;;;;;12.93;6.30;;;6.90;99.90;;;;;;5117880;28;20205;-78
2023/04/20 06:47:45;;;;;;;12.93;6.80;;;6.60;99.90;;;;;;5118203;28;20224;-78
2023/04/20 06:50:13;;;;;;;7.80;4.57;;;6.60;99.90;;;;;;5118214;28;20726;-78
2023/04/20 06:52:41;;;;;;;7.93;4.80;;;7.00;99.90;;;;;;5117399;27;20197;-78
2023/04/20 06:55:09;;;;;;;11.00;6.27;;;7.50;99.90;;;;;;5117971;28;20233;-77
2023/04/20 06:57:37;;;;;;;9.83;5.47;;;7.30;99.90;;;;;;5117310;28;20272;-78
2023/04/20 07:00:07;;;;;;;10.13;5.80;;;7.10;99.90;;;;;;5117572;28;20687;-78
2023/04/20 07:02:43;;;;;;;7.23;4.77;;;7.00;99.90;;;;;;5115853;28;20215;-78
2023/04/20 07:05:10;;;;;;;8.63;4.57;;;7.00;99.90;;;;;;5116747;28;20650;-78
2023/04/20 07:07:39;;;;;;;9.53;5.07;;;7.00;99.90;;;;;;5115667;28;20205;-78
2023/04/20 07:10:06;;;;;;;9.73;5.37;;;7.00;99.90;;;;;;5115140;28;20645;-78
2023/04/20 07:12:34;;;;;;;8.00;5.23;;;6.90;99.90;;;;;;5114554;28;20201;-79
2023/04/20 07:15:02;;;;;;;9.80;4.67;;;7.10;99.90;;;;;;5116080;28;20258;-79
2023/04/20 07:17:29;;;;;;;11.53;5.80;;;7.30;99.90;;;;;;5116724;28;20684;-78
2023/04/20 07:19:57;;;;;;;8.10;5.13;;;7.70;99.90;;;;;;5116462;28;20217;-79
2023/04/20 07:22:23;;;;;;;7.97;4.50;;;7.50;99.90;;;;;;5117080;28;20201;-79
2023/04/20 07:24:51;;;;;;;11.83;6.17;;;7.30;99.90;;;;;;5116908;28;20199;-79
2023/04/20 07:27:18;;;;;;;7.47;4.43;;;7.30;99.90;;;;;;5116948;28;20201;-78
2023/04/20 07:29:45;;;;;;;14.70;6.63;;;7.30;99.90;;;;;;5109314;28;20687;-79
2023/04/20 07:32:13;;;;;;;11.57;6.80;;;7.70;99.90;;;;;;5096576;28;20232;-79
2023/04/20 07:34:40;;;;;;;10.90;6.13;;;8.00;99.90;;;;;;5096544;28;20309;-79
2023/04/20 07:37:06;;;;;;;8.83;5.43;;;8.00;99.90;;;;;;5096673;28;20280;-78
2023/04/20 07:39:33;;;;;;;11.70;6.07;;;8.10;99.90;;;;;;5096971;28;20586;-79
2023/04/20 07:42:03;;;;;;;11.00;6.53;;;7.80;99.90;;;;;;5096452;28;20673;-79
2023/04/20 07:44:30;;;;;;;10.33;6.87;;;7.80;99.90;;;;;;5096656;28;20247;-79
2023/04/20 07:46:57;;;;;;;9.97;5.93;;;8.00;99.90;;;;;;5096134;28;20206;-79
2023/04/20 07:49:25;;;;;;;9.60;6.27;;;8.00;99.90;;;;;;5096360;28;20217;-79
2023/04/20 07:51:51;;;;;;;13.27;6.87;;;8.00;99.90;;;;;;5100427;28;20196;-78
2023/04/20 07:54:18;;;;;;;13.20;7.37;;;8.00;99.90;;;;;;5115097;28;20225;-79
2023/04/20 07:56:45;;;;;;;11.83;7.13;;;8.00;99.90;;;;;;5115314;28;20291;-79
2023/04/20 07:59:13;;;;;;;11.17;6.73;;;7.90;99.90;;;;;;5116395;28;20319;-79
2023/04/20 08:01:40;;;;;;;9.73;6.10;;;7.90;99.90;;;;;;5116999;28;20201;-79
2023/04/20 08:04:06;;;;;;;11.90;6.50;;;7.90;99.90;;;;;;5115317;28;20193;-79
2023/04/20 08:06:33;;;;;;;11.10;6.77;;;7.80;99.90;;;;;;5120346;28;20207;-79
2023/04/20 08:09:00;;;;;;;15.70;8.17;;;7.70;99.90;;;;;;5120905;28;20221;-79
2023/04/20 08:11:27;;;;;;;11.07;7.13;;;7.70;99.90;;;;;;5119772;28;20208;-79
2023/04/20 08:13:53;;;;;;;11.47;7.03;;;7.70;99.90;;;;;;5120464;28;20217;-79
2023/04/20 08:16:22;;;;;;;13.77;8.27;;;7.70;99.90;;;;;;5120135;28;20201;-79
2023/04/20 08:18:48;;;;;;;10.47;5.87;;;7.80;99.90;;;;;;5120186;28;20217;-78
2023/04/20 08:21:15;;;;;;;9.80;5.23;;;7.70;99.90;;;;;;5120122;28;20209;-78
2023/04/20 08:23:42;;;;;;;11.10;6.17;;;7.80;99.90;;;;;;5120659;28;20270;-79
2023/04/20 08:26:09;;;;;;;8.97;5.20;;;7.80;99.90;;;;;;5119598;28;20207;-79
2023/04/20 08:28:36;;;;;;;13.23;7.23;;;7.80;99.90;;;;;;5119252;28;20232;-78
2023/04/20 08:31:02;;;;;;;12.13;6.97;;;8.10;99.90;;;;;;5119665;28;20211;-79
2023/04/20 08:33:31;;;;;;;12.53;6.87;;;8.10;99.90;;;;;;5118575;28;20654;-79
2023/04/20 08:35:57;;;;;;;11.83;6.63;;;8.10;99.90;;;;;;5123891;28;20209;-78
2023/04/20 08:38:24;;;;;;;11.93;7.37;;;8.00;99.90;;;;;;5128551;28;20303;-78
2023/04/20 08:40:51;;;;;;;15.23;7.87;;;8.10;99.90;;;;;;5129426;28;20205;-79
2023/04/20 08:43:18;;;;;;;9.77;6.47;;;8.30;99.90;;;;;;5129133;28;20666;-78
2023/04/20 08:45:49;;;;;;;6.23;4.20;;;8.30;99.90;;;;;;5128769;28;20201;-79
2023/04/20 08:48:19;;;;;;;11.87;6.80;;;8.50;99.90;;;;;;5128137;28;20221;-78
2023/04/20 08:50:48;;;;;;;11.63;7.50;;;8.30;99.90;;;;;;5129061;28;20197;-79
2023/04/20 08:53:15;;;;;;;13.13;8.17;;;8.20;99.90;;;;;;5128652;28;20272;-79
2023/04/20 08:55:41;;;;;;;13.43;7.90;;;8.20;99.90;;;;;;5128653;28;20689;-79
2023/04/20 08:58:08;;;;;;;15.50;9.30;;;8.30;99.90;;;;;;5127688;28;20238;-78
2023/04/20 09:00:35;;;;;;;13.27;7.57;;;8.50;99.90;;;;;;5127363;28;20292;-78
2023/04/20 09:03:02;;;;;;;12.77;7.77;;;8.50;99.90;;;;;;5127435;28;20912;-79
2023/04/20 09:05:30;;;;;;;16.40;8.57;;;8.40;99.90;;;;;;5126463;28;20532;-78
2023/04/20 09:08:01;;;;;;;14.70;8.93;;;8.70;99.90;;;;;;5125821;28;20250;-79
2023/04/20 09:10:39;;;;;;;12.63;8.30;;;8.80;99.90;;;;;;5127349;28;20186;-78
2023/04/20 09:13:06;;;;;;;12.47;7.80;;;8.80;99.90;;;;;;5128121;28;20230;-78
2023/04/20 09:15:33;;;;;;;12.57;8.20;;;9.10;99.90;;;;;;5128572;28;20227;-79
2023/04/20 09:18:11;;;;;;;12.77;7.53;;;9.40;99.90;;;;;;5128732;28;20224;-79
2023/04/20 09:20:38;;;;;;;12.50;7.47;;;9.20;99.90;;;;;;5128882;28;20189;-79
2023/04/20 09:23:13;;;;;;;13.37;8.00;;;9.20;99.90;;;;;;5128872;28;20201;-79
2023/04/20 09:25:42;;;;;;;10.30;6.63;;;9.10;99.90;;;;;;5128350;27;20272;-78
2023/04/20 09:28:10;;;;;;;10.70;7.07;;;9.10;99.90;;;;;;5129176;28;20709;-78
2023/04/20 09:30:38;;;;;;;11.33;7.10;;;9.00;99.90;;;;;;5128024;28;20239;-78
2023/04/20 09:33:06;;;;;;;12.10;7.13;;;8.80;99.90;;;;;;5128430;28;20260;-79
2023/04/20 09:35:33;;;;;;;11.37;7.30;;;8.90;99.90;;;;;;5127879;28;20217;-78
2023/04/20 09:38:00;;;;;;;11.47;7.03;;;8.90;99.90;;;;;;5127787;28;20288;-79
2023/04/20 09:40:29;;;;;;;9.27;6.33;;;9.00;99.90;;;;;;5127274;28;20223;-79
2023/04/20 09:43:01;;;;;;;13.63;7.77;;;9.20;99.90;;;;;;5127589;28;20212;-79
2023/04/20 09:45:29;;;;;;;9.47;6.50;;;9.10;99.90;;;;;;5127323;28;20185;-78
2023/04/20 09:47:57;;;;;;;8.50;6.30;;;9.10;99.90;;;;;;5126529;28;20264;-79
2023/04/20 09:50:24;;;;;;;13.07;6.60;;;9.30;99.90;;;;;;5126895;28;20207;-79
2023/04/20 09:52:52;;;;;;;9.80;6.60;;;9.40;99.90;;;;;;5125952;28;20204;-79
2023/04/20 09:55:19;;;;;;;10.80;6.30;;;9.40;99.90;;;;;;5125754;28;20217;-78
2023/04/20 09:57:50;;;;;;;9.30;5.93;;;9.20;99.90;;;;;;5125951;28;20272;-78
2023/04/20 10:00:17;;;;;;;9.57;6.20;;;9.00;99.90;;;;;;5126662;28;20563;-78
2023/04/20 10:02:47;;;;;;;9.47;5.83;;;8.90;99.90;;;;;;5127232;28;20207;-78
2023/04/20 10:05:14;;;;;;;9.20;5.60;;;8.90;99.90;;;;;;5118759;28;20213;-77
2023/04/20 10:07:41;;;;;;;9.23;6.20;;;9.10;99.90;;;;;;5116254;28;20197;-77
2023/04/20 10:10:10;;;;;;;11.47;6.97;;;9.20;99.90;;;;;;5117478;28;20291;-77
2023/04/20 10:12:52;;;;;;;9.93;6.37;;;9.10;99.90;;;;;;5117441;28;20205;-77
2023/04/20 10:15:20;;;;;;;10.53;6.70;;;9.20;99.90;;;;;;5116526;28;20209;-77
2023/04/20 10:17:47;;;;;;;10.40;7.07;;;9.30;99.90;;;;;;5117375;28;20357;-77
2023/04/20 10:20:23;;;;;;;9.40;6.30;;;9.30;99.90;;;;;;5116554;28;20602;-77
2023/04/20 10:22:52;;;;;;;11.07;6.47;;;9.20;99.90;;;;;;5116664;28;20208;-77
2023/04/20 10:25:20;;;;;;;8.10;5.40;;;9.30;99.90;;;;;;5121235;28;20203;-77
2023/04/20 10:27:56;;;;;;;9.97;6.43;;;9.30;99.90;;;;;;5115836;28;20662;-77
2023/04/20 10:30:23;;;;;;;11.63;6.83;;;9.50;99.90;;;;;;5115938;28;20204;-78
2023/04/20 10:32:50;;;;;;;10.47;6.53;;;9.80;99.90;;;;;;5100105;28;20205;-78
2023/04/20 10:35:17;;;;;;;9.13;6.30;;;9.50;99.90;;;;;;5095712;28;20217;-78
2023/04/20 10:37:48;;;;;;;9.17;6.57;;;9.50;99.90;;;;;;5095293;28;20273;-78
2023/04/20 10:40:15;;;;;;;10.17;5.77;;;9.30;99.90;;;;;;5094055;28;20206;-78
2023/04/20 10:42:43;;;;;;;10.57;6.20;;;9.10;99.90;;;;;;5108771;28;20204;-77
2023/04/20 10:45:12;;;;;;;9.53;6.00;;;9.20;99.90;;;;;;5113712;28;20205;-77
2023/04/20 10:47:40;;;;;;;8.30;5.83;;;9.30;99.90;;;;;;5113597;28;20226;-77
2023/04/20 10:50:09;;;;;;;9.00;6.20;;;9.30;99.90;;;;;;5111458;28;20259;-77
2023/04/20 10:52:40;;;;;;;9.97;6.27;;;9.60;99.90;;;;;;5096694;28;20201;-77
2023/04/20 10:55:17;;;;;;;8.23;5.87;;;9.70;99.90;;;;;;5114488;28;20229;-77
2023/04/20 10:57:45;;;;;;;9.17;6.23;;;9.80;99.90;;;;;;5093748;28;20213;-77
2023/04/20 11:00:17;;;;;;;9.47;6.00;;;9.60;99.90;;;;;;5093040;28;20205;-77
2023/04/20 11:02:52;;;;;;;7.03;4.83;;;9.70;99.90;;;;;;5092817;28;20254;-78
2023/04/20 11:05:20;;;;;;;8.27;5.70;;;9.50;99.90;;;;;;5095174;28;20197;-77
2023/04/20 11:07:53;;;;;;;10.47;5.67;;;9.50;99.90;;;;;;5096384;28;20212;-77
2023/04/20 11:10:20;;;;;;;9.43;6.20;;;9.50;99.90;;;;;;5112942;28;20670;-77
2023/04/20 11:12:47;;;;;;;8.03;5.30;;;9.40;99.90;;;;;;5100619;28;20201;-77
2023/04/20 11:15:15;;;;;;;8.97;5.13;;;9.40;99.90;;;;;;5095328;28;20679;-77
2023/04/20 11:17:44;;;;;;;6.87;4.83;;;9.40;99.90;;;;;;5094338;28;20212;-78
2023/04/20 11:20:15;;;;;;;10.13;6.70;;;9.60;99.90;;;;;;5094949;28;20214;-77
2023/04/20 11:22:43;;;;;;;10.87;5.67;;;9.80;99.90;;;;;;5094857;28;20296;-77
2023/04/20 11:25:12;;;;;;;9.63;6.30;;;9.60;99.90;;;;;;5094653;28;20209;-78
2023/04/20 11:27:40;;;;;;;8.73;5.87;;;9.80;99.90;;;;;;5106023;28;20597;-77
2023/04/20 11:30:08;;;;;;;10.10;7.13;;;9.90;99.90;;;;;;5114442;28;20287;-78
2023/04/20 11:32:36;;;;;;;9.23;5.70;;;10.10;99.90;;;;;;5101982;28;20205;-77
2023/04/20 11:35:08;;;;;;;8.20;4.97;;;10.00;99.90;;;;;;5094174;28;20218;-77
2023/04/20 11:37:45;;;;;;;8.87;5.70;;;9.80;99.90;;;;;;5096715;28;20205;-78
2023/04/20 11:40:13;;;;;;;10.13;6.73;;;9.80;99.90;;;;;;5094943;28;20543;-78
2023/04/20 11:42:40;;;;;;;9.70;6.50;;;10.40;99.90;;;;;;5094775;28;20582;-77
2023/04/20 11:45:08;;;;;;;7.00;4.80;;;11.10;99.90;;;;;;5093999;28;20201;-78
2023/04/20 11:47:35;;;;;;;7.83;5.73;;;11.30;99.90;;;;;;5093647;28;20205;-77
2023/04/20 11:50:01;;;;;;;7.63;5.87;;;11.30;99.90;;;;;;5092219;28;20236;-78
2023/04/20 11:52:29;;;;;;;8.13;5.87;;;11.60;99.90;;;;;;5104067;28;20203;-78
2023/04/20 11:54:56;;;;;;;9.50;6.40;;;11.50;99.90;;;;;;5106392;28;20586;-78
2023/04/20 11:57:24;;;;;;;7.33;5.13;;;10.80;99.90;;;;;;5106740;28;20211;-78
2023/04/20 11:59:52;;;;;;;8.33;5.60;;;10.50;99.90;;;;;;5110747;28;20641;-78
2023/04/20 12:02:19;;;;;;;9.70;6.33;;;10.60;99.90;;;;;;5106770;28;20204;-78
2023/04/20 12:04:46;;;;;;;8.33;6.10;;;10.30;99.90;;;;;;5101168;28;20205;-78
2023/04/20 12:07:12;;;;;;;8.23;5.50;;;10.30;99.90;;;;;;5111926;28;20572;-77
2023/04/20 12:09:40;;;;;;;8.03;5.20;;;10.30;99.90;;;;;;5114681;28;20223;-78
2023/04/20 12:12:08;;;;;;;9.20;6.13;;;10.50;99.90;;;;;;5105553;28;20216;-78
2023/04/20 12:14:35;;;;;;;8.97;5.50;;;10.40;99.90;;;;;;5093814;28;20213;-79
2023/04/20 12:17:03;;;;;;;9.20;6.07;;;10.70;99.90;;;;;;5094553;28;20201;-78
2023/04/20 12:19:30;;;;;;;9.30;6.67;;;10.90;99.90;;;;;;5093752;28;20233;-78
2023/04/20 12:21:57;;;;;;;9.03;6.47;;;11.20;99.90;;;;;;5094546;28;20212;-78
2023/04/20 12:24:25;;;;;;;8.77;6.00;;;11.10;99.90;;;;;;5092890;28;20232;-78
2023/04/20 12:26:53;;;;;;;8.53;5.90;;;11.40;99.90;;;;;;5095386;28;20691;-78
2023/04/20 12:29:20;;;;;;;9.23;6.70;;;11.30;99.90;;;;;;5094470;28;20250;-78
2023/04/20 12:31:47;;;;;;;11.23;6.73;;;11.50;99.90;;;;;;5094360;28;20296;-78
2023/04/20 12:34:13;;;;;;;12.47;7.73;;;12.20;99.90;;;;;;5097042;28;20202;-78
2023/04/20 12:36:40;;;;;;;10.30;6.73;;;12.20;99.90;;;;;;5113167;28;20228;-78
2023/04/20 12:39:07;;;;;;;11.20;7.90;;;12.20;99.90;;;;;;5114411;28;20284;-78
2023/04/20 12:41:34;;;;;;;10.10;7.50;;;12.20;99.90;;;;;;5113309;28;20236;-78
2023/04/20 12:44:03;;;;;;;10.93;6.90;;;12.70;99.90;;;;;;5102858;28;20198;-77
2023/04/20 12:46:29;;;;;;;9.67;7.23;;;11.80;99.90;;;;;;5104919;28;20199;-78
2023/04/20 12:48:56;;;;;;;10.10;6.57;;;11.50;99.90;;;;;;5105289;28;20217;-80
2023/04/20 12:51:23;;;;;;;10.97;7.80;;;11.50;99.90;;;;;;5109346;28;20292;-78